sensor_id;sensor_type;location;lat;lon;timestamp;P1;durP1;ratioP1;P2;durP2;ratioP2
23608;SDS011;11982;50.810;4.442;2023-06-24T00:04:00;15.13;;;10.27;;
23608;SDS011;11982;50.810;4.442;2023-06-24T00:06:26;21.17;;;10.20;;
23608;SDS011;11982;50.810;4.442;2023-06-24T00:08:52;18.98;;;11.43;;
23608;SDS011;11982;50.810;4.442;2023-06-24T00:11:25;14.38;;;9.85;;
23608;SDS011;11982;50.810;4.442;2023-06-24T00:13:51;15.27;;;10.48;;
23608;SDS011;11982;50.810;4.442;2023-06-24T00:16:17;15.32;;;9.65;;
23608;SDS011;11982;50.810;4.442;2023-06-24T00:18:51;15.52;;;9.85;;
23608;SDS011;11982;50.810;4.442;2023-06-24T00:21:17;19.33;;;10.73;;
23608;SDS011;11982;50.810;4.442;2023-06-24T00:23:44;16.42;;;10.13;;
23608;SDS011;11982;50.810;4.442;2023-06-24T00:26:14;15.02;;;10.05;;
23608;SDS011;11982;50.810;4.442;2023-06-24T00:28:41;14.38;;;9.35;;
23608;SDS011;11982;50.810;4.442;2023-06-24T00:31:07;17.75;;;10.23;;
23608;SDS011;11982;50.810;4.442;2023-06-24T00:33:32;13.45;;;9.77;;
23608;SDS011;11982;50.810;4.442;2023-06-24T00:36:01;17.27;;;10.27;;
23608;SDS011;11982;50.810;4.442;2023-06-24T00:38:27;19.27;;;10.40;;
23608;SDS011;11982;50.810;4.442;2023-06-24T00:40:57;16.25;;;9.68;;
23608;SDS011;11982;50.810;4.442;2023-06-24T00:43:23;14.93;;;10.25;;
23608;SDS011;11982;50.810;4.442;2023-06-24T00:49:11;16.45;;;9.85;;
23608;SDS011;11982;50.810;4.442;2023-06-24T00:51:39;19.98;;;9.93;;
23608;SDS011;11982;50.810;4.442;2023-06-24T00:54:05;14.10;;;9.98;;
23608;SDS011;11982;50.810;4.442;2023-06-24T00:56:32;15.05;;;9.38;;
23608;SDS011;11982;50.810;4.442;2023-06-24T00:59:00;15.55;;;9.40;;
23608;SDS011;11982;50.810;4.442;2023-06-24T01:05:25;16.80;;;10.35;;
23608;SDS011;11982;50.810;4.442;2023-06-24T01:07:52;14.05;;;9.77;;
23608;SDS011;11982;50.810;4.442;2023-06-24T01:10:21;18.33;;;10.00;;
23608;SDS011;11982;50.810;4.442;2023-06-24T01:12:48;13.98;;;9.52;;
23608;SDS011;11982;50.810;4.442;2023-06-24T01:15:14;15.23;;;10.13;;
23608;SDS011;11982;50.810;4.442;2023-06-24T01:17:43;15.10;;;9.80;;
23608;SDS011;11982;50.810;4.442;2023-06-24T01:20:25;19.13;;;10.20;;
23608;SDS011;11982;50.810;4.442;2023-06-24T01:23:04;16.75;;;9.50;;
23608;SDS011;11982;50.810;4.442;2023-06-24T01:33:48;15.45;;;9.80;;
23608;SDS011;11982;50.810;4.442;2023-06-24T01:36:21;13.05;;;9.15;;
23608;SDS011;11982;50.810;4.442;2023-06-24T01:38:51;15.30;;;9.52;;
23608;SDS011;11982;50.810;4.442;2023-06-24T01:41:22;16.38;;;9.70;;
23608;SDS011;11982;50.810;4.442;2023-06-24T01:43:52;20.92;;;9.93;;
23608;SDS011;11982;50.810;4.442;2023-06-24T01:46:22;13.65;;;9.57;;
23608;SDS011;11982;50.810;4.442;2023-06-24T01:48:50;13.60;;;9.50;;
23608;SDS011;11982;50.810;4.442;2023-06-24T01:51:20;15.88;;;10.18;;
23608;SDS011;11982;50.810;4.442;2023-06-24T01:53:51;12.90;;;9.13;;
23608;SDS011;11982;50.810;4.442;2023-06-24T01:56:20;18.63;;;9.43;;
23608;SDS011;11982;50.810;4.442;2023-06-24T01:58:48;15.27;;;9.60;;
23608;SDS011;11982;50.810;4.442;2023-06-24T02:01:18;16.63;;;10.18;;
23608;SDS011;11982;50.810;4.442;2023-06-24T02:03:44;13.88;;;9.38;;
23608;SDS011;11982;50.810;4.442;2023-06-24T02:06:11;14.13;;;9.20;;
23608;SDS011;11982;50.810;4.442;2023-06-24T02:08:39;16.63;;;9.60;;
23608;SDS011;11982;50.810;4.442;2023-06-24T02:11:06;11.82;;;8.93;;
23608;SDS011;11982;50.810;4.442;2023-06-24T02:13:33;19.60;;;9.75;;
23608;SDS011;11982;50.810;4.442;2023-06-24T02:16:01;18.98;;;9.68;;
23608;SDS011;11982;50.810;4.442;2023-06-24T02:18:30;15.43;;;8.82;;
23608;SDS011;11982;50.810;4.442;2023-06-24T02:20:56;15.13;;;9.20;;
23608;SDS011;11982;50.810;4.442;2023-06-24T02:23:23;13.80;;;8.98;;
23608;SDS011;11982;50.810;4.442;2023-06-24T02:25:50;16.88;;;9.65;;
23608;SDS011;11982;50.810;4.442;2023-06-24T02:28:16;17.20;;;9.70;;
23608;SDS011;11982;50.810;4.442;2023-06-24T02:30:43;16.88;;;8.90;;
23608;SDS011;11982;50.810;4.442;2023-06-24T02:33:09;16.38;;;8.93;;
23608;SDS011;11982;50.810;4.442;2023-06-24T02:35:37;15.82;;;8.65;;
23608;SDS011;11982;50.810;4.442;2023-06-24T02:38:03;13.25;;;8.38;;
23608;SDS011;11982;50.810;4.442;2023-06-24T02:40:28;14.05;;;8.32;;
23608;SDS011;11982;50.810;4.442;2023-06-24T02:42:55;15.60;;;8.90;;
23608;SDS011;11982;50.810;4.442;2023-06-24T02:45:21;13.00;;;8.60;;
23608;SDS011;11982;50.810;4.442;2023-06-24T02:47:48;13.95;;;8.57;;
23608;SDS011;11982;50.810;4.442;2023-06-24T02:50:14;14.57;;;9.48;;
23608;SDS011;11982;50.810;4.442;2023-06-24T02:52:41;11.68;;;8.95;;
23608;SDS011;11982;50.810;4.442;2023-06-24T02:55:07;14.77;;;8.82;;
23608;SDS011;11982;50.810;4.442;2023-06-24T02:57:34;13.10;;;8.43;;
23608;SDS011;11982;50.810;4.442;2023-06-24T03:00:04;16.20;;;10.07;;
23608;SDS011;11982;50.810;4.442;2023-06-24T03:05:59;12.82;;;8.75;;
23608;SDS011;11982;50.810;4.442;2023-06-24T03:08:27;13.70;;;8.55;;
23608;SDS011;11982;50.810;4.442;2023-06-24T03:10:56;11.55;;;7.85;;
23608;SDS011;11982;50.810;4.442;2023-06-24T03:13:23;15.93;;;8.40;;
23608;SDS011;11982;50.810;4.442;2023-06-24T03:15:50;13.55;;;8.32;;
23608;SDS011;11982;50.810;4.442;2023-06-24T03:18:16;11.93;;;8.73;;
23608;SDS011;11982;50.810;4.442;2023-06-24T03:20:43;13.68;;;7.97;;
23608;SDS011;11982;50.810;4.442;2023-06-24T03:23:09;13.00;;;8.40;;
23608;SDS011;11982;50.810;4.442;2023-06-24T03:25:35;17.95;;;8.95;;
23608;SDS011;11982;50.810;4.442;2023-06-24T03:28:00;14.25;;;9.20;;
23608;SDS011;11982;50.810;4.442;2023-06-24T03:30:28;19.48;;;9.57;;
23608;SDS011;11982;50.810;4.442;2023-06-24T03:36:17;13.18;;;8.02;;
23608;SDS011;11982;50.810;4.442;2023-06-24T03:38:42;14.45;;;9.60;;
23608;SDS011;11982;50.810;4.442;2023-06-24T03:41:08;19.40;;;9.05;;
23608;SDS011;11982;50.810;4.442;2023-06-24T03:43:34;17.80;;;8.45;;
23608;SDS011;11982;50.810;4.442;2023-06-24T03:45:59;17.30;;;8.68;;
23608;SDS011;11982;50.810;4.442;2023-06-24T03:52:29;12.40;;;8.35;;
23608;SDS011;11982;50.810;4.442;2023-06-24T03:54:54;16.75;;;8.13;;
23608;SDS011;11982;50.810;4.442;2023-06-24T03:57:20;13.20;;;7.57;;
23608;SDS011;11982;50.810;4.442;2023-06-24T03:59:47;20.42;;;9.05;;
23608;SDS011;11982;50.810;4.442;2023-06-24T04:02:13;17.15;;;8.85;;
23608;SDS011;11982;50.810;4.442;2023-06-24T04:04:39;10.50;;;8.05;;
23608;SDS011;11982;50.810;4.442;2023-06-24T04:07:04;13.13;;;7.95;;
23608;SDS011;11982;50.810;4.442;2023-06-24T04:09:32;13.43;;;8.35;;
23608;SDS011;11982;50.810;4.442;2023-06-24T04:11:59;9.77;;;7.88;;
23608;SDS011;11982;50.810;4.442;2023-06-24T04:14:24;12.63;;;8.27;;
23608;SDS011;11982;50.810;4.442;2023-06-24T04:16:50;12.38;;;8.07;;
23608;SDS011;11982;50.810;4.442;2023-06-24T04:19:16;13.02;;;8.38;;
23608;SDS011;11982;50.810;4.442;2023-06-24T04:21:41;12.20;;;7.18;;
23608;SDS011;11982;50.810;4.442;2023-06-24T04:24:07;13.48;;;7.88;;
23608;SDS011;11982;50.810;4.442;2023-06-24T04:26:33;14.63;;;6.93;;
23608;SDS011;11982;50.810;4.442;2023-06-24T04:28:58;15.65;;;7.63;;
23608;SDS011;11982;50.810;4.442;2023-06-24T04:31:24;11.77;;;6.78;;
23608;SDS011;11982;50.810;4.442;2023-06-24T04:37:12;8.63;;;6.57;;
23608;SDS011;11982;50.810;4.442;2023-06-24T04:39:38;16.67;;;7.57;;
23608;SDS011;11982;50.810;4.442;2023-06-24T04:42:04;12.48;;;7.38;;
23608;SDS011;11982;50.810;4.442;2023-06-24T04:44:29;15.60;;;7.63;;
23608;SDS011;11982;50.810;4.442;2023-06-24T04:46:55;10.57;;;7.18;;
23608;SDS011;11982;50.810;4.442;2023-06-24T04:49:21;11.93;;;6.88;;
23608;SDS011;11982;50.810;4.442;2023-06-24T04:51:46;14.63;;;7.32;;
23608;SDS011;11982;50.810;4.442;2023-06-24T04:54:12;9.32;;;7.03;;
23608;SDS011;11982;50.810;4.442;2023-06-24T04:56:39;9.95;;;6.80;;
23608;SDS011;11982;50.810;4.442;2023-06-24T04:59:04;11.93;;;6.93;;
23608;SDS011;11982;50.810;4.442;2023-06-24T05:01:30;10.80;;;6.55;;
23608;SDS011;11982;50.810;4.442;2023-06-24T05:07:18;9.10;;;5.90;;
23608;SDS011;11982;50.810;4.442;2023-06-24T05:09:47;9.25;;;5.85;;
23608;SDS011;11982;50.810;4.442;2023-06-24T05:12:14;8.82;;;5.80;;
23608;SDS011;11982;50.810;4.442;2023-06-24T05:14:39;9.98;;;5.70;;
23608;SDS011;11982;50.810;4.442;2023-06-24T05:17:05;6.53;;;5.18;;
23608;SDS011;11982;50.810;4.442;2023-06-24T05:19:31;9.43;;;5.22;;
23608;SDS011;11982;50.810;4.442;2023-06-24T05:21:57;10.00;;;5.38;;
23608;SDS011;11982;50.810;4.442;2023-06-24T05:24:23;6.45;;;4.90;;
23608;SDS011;11982;50.810;4.442;2023-06-24T05:26:50;10.13;;;5.20;;
23608;SDS011;11982;50.810;4.442;2023-06-24T05:29:16;6.43;;;5.05;;
23608;SDS011;11982;50.810;4.442;2023-06-24T05:31:43;8.05;;;5.35;;
23608;SDS011;11982;50.810;4.442;2023-06-24T05:37:31;6.63;;;4.93;;
23608;SDS011;11982;50.810;4.442;2023-06-24T05:39:56;6.15;;;4.20;;
23608;SDS011;11982;50.810;4.442;2023-06-24T05:42:22;7.75;;;4.85;;
23608;SDS011;11982;50.810;4.442;2023-06-24T05:44:48;8.57;;;4.90;;
23608;SDS011;11982;50.810;4.442;2023-06-24T05:47:14;7.57;;;4.22;;
23608;SDS011;11982;50.810;4.442;2023-06-24T05:53:02;7.35;;;4.28;;
23608;SDS011;11982;50.810;4.442;2023-06-24T05:55:27;6.35;;;4.45;;
23608;SDS011;11982;50.810;4.442;2023-06-24T05:57:53;6.55;;;4.60;;
23608;SDS011;11982;50.810;4.442;2023-06-24T06:00:19;10.45;;;4.38;;
23608;SDS011;11982;50.810;4.442;2023-06-24T06:02:47;8.07;;;4.55;;
23608;SDS011;11982;50.810;4.442;2023-06-24T06:05:13;5.35;;;4.32;;
23608;SDS011;11982;50.810;4.442;2023-06-24T06:07:38;5.88;;;4.25;;
23608;SDS011;11982;50.810;4.442;2023-06-24T06:10:05;6.88;;;4.65;;
23608;SDS011;11982;50.810;4.442;2023-06-24T06:12:31;8.07;;;4.22;;
23608;SDS011;11982;50.810;4.442;2023-06-24T06:14:57;6.65;;;3.58;;
23608;SDS011;11982;50.810;4.442;2023-06-24T06:17:23;5.07;;;4.22;;
23608;SDS011;11982;50.810;4.442;2023-06-24T06:23:10;6.97;;;4.20;;
23608;SDS011;11982;50.810;4.442;2023-06-24T06:25:36;9.70;;;3.92;;
23608;SDS011;11982;50.810;4.442;2023-06-24T06:28:03;8.32;;;3.78;;
23608;SDS011;11982;50.810;4.442;2023-06-24T06:30:29;4.65;;;3.83;;
23608;SDS011;11982;50.810;4.442;2023-06-24T06:32:55;6.65;;;4.20;;
23608;SDS011;11982;50.810;4.442;2023-06-24T06:35:20;5.90;;;3.65;;
23608;SDS011;11982;50.810;4.442;2023-06-24T06:37:46;6.45;;;3.70;;
23608;SDS011;11982;50.810;4.442;2023-06-24T06:40:17;8.18;;;3.75;;
23608;SDS011;11982;50.810;4.442;2023-06-24T06:42:43;4.45;;;3.47;;
23608;SDS011;11982;50.810;4.442;2023-06-24T06:45:09;5.57;;;3.47;;
23608;SDS011;11982;50.810;4.442;2023-06-24T06:47:35;4.68;;;3.40;;
23608;SDS011;11982;50.810;4.442;2023-06-24T06:53:22;5.22;;;3.80;;
23608;SDS011;11982;50.810;4.442;2023-06-24T06:55:48;5.47;;;4.00;;
23608;SDS011;11982;50.810;4.442;2023-06-24T06:58:14;6.63;;;3.40;;
23608;SDS011;11982;50.810;4.442;2023-06-24T07:00:40;3.97;;;3.47;;
23608;SDS011;11982;50.810;4.442;2023-06-24T07:03:05;5.68;;;3.67;;
23608;SDS011;11982;50.810;4.442;2023-06-24T07:08:52;6.50;;;3.50;;
23608;SDS011;11982;50.810;4.442;2023-06-24T07:11:18;5.35;;;3.45;;
23608;SDS011;11982;50.810;4.442;2023-06-24T07:13:44;7.90;;;4.10;;
23608;SDS011;11982;50.810;4.442;2023-06-24T07:16:11;6.93;;;3.72;;
23608;SDS011;11982;50.810;4.442;2023-06-24T07:18:36;5.47;;;3.30;;
23608;SDS011;11982;50.810;4.442;2023-06-24T07:21:02;5.38;;;3.75;;
23608;SDS011;11982;50.810;4.442;2023-06-24T07:23:28;5.10;;;3.92;;
23608;SDS011;11982;50.810;4.442;2023-06-24T07:25:54;6.60;;;3.28;;
23608;SDS011;11982;50.810;4.442;2023-06-24T07:28:19;5.78;;;3.60;;
23608;SDS011;11982;50.810;4.442;2023-06-24T07:30:45;6.57;;;3.78;;
23608;SDS011;11982;50.810;4.442;2023-06-24T07:33:11;6.13;;;3.67;;
23608;SDS011;11982;50.810;4.442;2023-06-24T07:38:58;7.05;;;3.22;;
23608;SDS011;11982;50.810;4.442;2023-06-24T07:41:24;5.32;;;3.70;;
23608;SDS011;11982;50.810;4.442;2023-06-24T07:43:50;4.20;;;3.60;;
23608;SDS011;11982;50.810;4.442;2023-06-24T07:46:17;7.22;;;3.47;;
23608;SDS011;11982;50.810;4.442;2023-06-24T07:48:43;9.13;;;3.70;;
23608;SDS011;11982;50.810;4.442;2023-06-24T07:54:31;5.18;;;3.10;;
23608;SDS011;11982;50.810;4.442;2023-06-24T07:56:56;6.70;;;3.53;;
23608;SDS011;11982;50.810;4.442;2023-06-24T07:59:22;6.80;;;3.50;;
23608;SDS011;11982;50.810;4.442;2023-06-24T08:01:49;6.50;;;3.05;;
23608;SDS011;11982;50.810;4.442;2023-06-24T08:04:15;4.32;;;3.03;;
23608;SDS011;11982;50.810;4.442;2023-06-24T08:06:41;10.18;;;3.97;;
23608;SDS011;11982;50.810;4.442;2023-06-24T08:09:06;3.83;;;3.08;;
23608;SDS011;11982;50.810;4.442;2023-06-24T08:11:32;6.22;;;2.70;;
23608;SDS011;11982;50.810;4.442;2023-06-24T08:13:58;5.05;;;3.17;;
23608;SDS011;11982;50.810;4.442;2023-06-24T08:16:24;3.33;;;2.55;;
23608;SDS011;11982;50.810;4.442;2023-06-24T08:18:50;5.75;;;2.88;;
23608;SDS011;11982;50.810;4.442;2023-06-24T08:24:39;5.22;;;3.00;;
23608;SDS011;11982;50.810;4.442;2023-06-24T08:27:05;4.82;;;2.95;;
23608;SDS011;11982;50.810;4.442;2023-06-24T08:29:30;3.08;;;2.70;;
23608;SDS011;11982;50.810;4.442;2023-06-24T08:31:56;3.85;;;2.53;;
23608;SDS011;11982;50.810;4.442;2023-06-24T08:34:22;6.50;;;3.40;;
23608;SDS011;11982;50.810;4.442;2023-06-24T08:36:47;4.22;;;2.78;;
23608;SDS011;11982;50.810;4.442;2023-06-24T08:39:13;5.68;;;3.40;;
23608;SDS011;11982;50.810;4.442;2023-06-24T08:41:39;5.03;;;3.08;;
23608;SDS011;11982;50.810;4.442;2023-06-24T08:44:04;4.85;;;3.20;;
23608;SDS011;11982;50.810;4.442;2023-06-24T08:46:30;5.35;;;3.13;;
23608;SDS011;11982;50.810;4.442;2023-06-24T08:48:59;5.05;;;3.30;;
23608;SDS011;11982;50.810;4.442;2023-06-24T08:54:55;4.47;;;2.78;;
23608;SDS011;11982;50.810;4.442;2023-06-24T08:57:24;3.00;;;2.60;;
23608;SDS011;11982;50.810;4.442;2023-06-24T08:59:50;4.43;;;3.08;;
23608;SDS011;11982;50.810;4.442;2023-06-24T09:02:15;3.58;;;2.83;;
23608;SDS011;11982;50.810;4.442;2023-06-24T09:04:41;3.35;;;2.72;;
23608;SDS011;11982;50.810;4.442;2023-06-24T09:07:07;3.08;;;2.45;;
23608;SDS011;11982;50.810;4.442;2023-06-24T09:09:33;4.47;;;2.60;;
23608;SDS011;11982;50.810;4.442;2023-06-24T09:12:10;2.97;;;2.70;;
23608;SDS011;11982;50.810;4.442;2023-06-24T09:14:37;3.00;;;2.53;;
23608;SDS011;11982;50.810;4.442;2023-06-24T09:17:03;3.67;;;2.67;;
23608;SDS011;11982;50.810;4.442;2023-06-24T09:19:29;3.53;;;2.67;;
23608;SDS011;11982;50.810;4.442;2023-06-24T09:25:17;4.80;;;2.75;;
23608;SDS011;11982;50.810;4.442;2023-06-24T09:27:47;3.47;;;2.70;;
23608;SDS011;11982;50.810;4.442;2023-06-24T09:30:20;4.78;;;2.67;;
23608;SDS011;11982;50.810;4.442;2023-06-24T09:32:48;3.85;;;3.00;;
23608;SDS011;11982;50.810;4.442;2023-06-24T09:35:14;3.53;;;3.05;;
23608;SDS011;11982;50.810;4.442;2023-06-24T09:37:55;4.53;;;2.70;;
23608;SDS011;11982;50.810;4.442;2023-06-24T09:40:24;3.83;;;2.90;;
23608;SDS011;11982;50.810;4.442;2023-06-24T09:42:50;5.20;;;2.80;;
23608;SDS011;11982;50.810;4.442;2023-06-24T09:45:27;4.43;;;2.83;;
23608;SDS011;11982;50.810;4.442;2023-06-24T09:47:54;4.25;;;2.80;;
23608;SDS011;11982;50.810;4.442;2023-06-24T09:50:20;7.18;;;2.85;;
23608;SDS011;11982;50.810;4.442;2023-06-24T09:52:47;4.40;;;2.95;;
23608;SDS011;11982;50.810;4.442;2023-06-24T09:55:14;3.22;;;2.47;;
23608;SDS011;11982;50.810;4.442;2023-06-24T09:57:41;2.95;;;2.33;;
23608;SDS011;11982;50.810;4.442;2023-06-24T10:00:10;5.13;;;2.50;;
23608;SDS011;11982;50.810;4.442;2023-06-24T10:02:40;3.95;;;2.28;;
23608;SDS011;11982;50.810;4.442;2023-06-24T10:05:06;3.33;;;2.53;;
23608;SDS011;11982;50.810;4.442;2023-06-24T10:11:04;4.55;;;2.67;;
23608;SDS011;11982;50.810;4.442;2023-06-24T10:13:30;4.70;;;3.08;;
23608;SDS011;11982;50.810;4.442;2023-06-24T10:15:56;3.75;;;3.00;;
23608;SDS011;11982;50.810;4.442;2023-06-24T10:20:57;3.33;;;2.42;;
23608;SDS011;11982;50.810;4.442;2023-06-24T10:23:29;3.35;;;2.30;;
23608;SDS011;11982;50.810;4.442;2023-06-24T10:25:59;2.60;;;2.15;;
23608;SDS011;11982;50.810;4.442;2023-06-24T10:28:24;3.80;;;2.40;;
23608;SDS011;11982;50.810;4.442;2023-06-24T10:30:54;2.80;;;2.50;;
23608;SDS011;11982;50.810;4.442;2023-06-24T10:33:24;3.78;;;2.38;;
23608;SDS011;11982;50.810;4.442;2023-06-24T10:35:50;3.78;;;2.50;;
23608;SDS011;11982;50.810;4.442;2023-06-24T10:38:17;4.15;;;2.50;;
23608;SDS011;11982;50.810;4.442;2023-06-24T10:40:43;3.28;;;2.40;;
23608;SDS011;11982;50.810;4.442;2023-06-24T10:45:50;5.72;;;2.30;;
23608;SDS011;11982;50.810;4.442;2023-06-24T10:48:17;5.45;;;2.67;;
23608;SDS011;11982;50.810;4.442;2023-06-24T10:50:46;4.25;;;2.50;;
23608;SDS011;11982;50.810;4.442;2023-06-24T10:56:34;2.50;;;1.98;;
23608;SDS011;11982;50.810;4.442;2023-06-24T10:59:00;3.85;;;2.30;;
23608;SDS011;11982;50.810;4.442;2023-06-24T11:01:26;2.60;;;2.40;;
23608;SDS011;11982;50.810;4.442;2023-06-24T11:03:51;3.95;;;2.42;;
23608;SDS011;11982;50.810;4.442;2023-06-24T11:06:17;3.13;;;2.45;;
23608;SDS011;11982;50.810;4.442;2023-06-24T11:08:43;4.10;;;2.60;;
23608;SDS011;11982;50.810;4.442;2023-06-24T11:11:10;3.17;;;2.47;;
23608;SDS011;11982;50.810;4.442;2023-06-24T11:13:44;2.95;;;2.45;;
23608;SDS011;11982;50.810;4.442;2023-06-24T11:16:13;5.20;;;3.05;;
23608;SDS011;11982;50.810;4.442;2023-06-24T11:18:39;3.90;;;2.53;;
23608;SDS011;11982;50.810;4.442;2023-06-24T11:21:08;3.90;;;2.63;;
23608;SDS011;11982;50.810;4.442;2023-06-24T11:26:56;3.05;;;2.22;;
23608;SDS011;11982;50.810;4.442;2023-06-24T11:29:22;4.03;;;2.80;;
23608;SDS011;11982;50.810;4.442;2023-06-24T11:31:48;4.03;;;2.95;;
23608;SDS011;11982;50.810;4.442;2023-06-24T11:34:15;3.85;;;2.80;;
23608;SDS011;11982;50.810;4.442;2023-06-24T11:36:41;2.70;;;2.42;;
23608;SDS011;11982;50.810;4.442;2023-06-24T11:39:07;3.85;;;2.70;;
23608;SDS011;11982;50.810;4.442;2023-06-24T11:41:32;5.80;;;3.00;;
23608;SDS011;11982;50.810;4.442;2023-06-24T11:43:58;3.50;;;2.67;;
23608;SDS011;11982;50.810;4.442;2023-06-24T11:46:28;2.50;;;2.30;;
23608;SDS011;11982;50.810;4.442;2023-06-24T11:49:07;3.33;;;2.95;;
23608;SDS011;11982;50.810;4.442;2023-06-24T11:51:34;5.13;;;2.88;;
23608;SDS011;11982;50.810;4.442;2023-06-24T11:54:04;5.75;;;3.22;;
23608;SDS011;11982;50.810;4.442;2023-06-24T11:56:40;3.20;;;2.90;;
23608;SDS011;11982;50.810;4.442;2023-06-24T11:59:07;4.82;;;2.90;;
23608;SDS011;11982;50.810;4.442;2023-06-24T12:01:58;2.65;;;2.33;;
23608;SDS011;11982;50.810;4.442;2023-06-24T12:04:28;3.33;;;2.90;;
23608;SDS011;11982;50.810;4.442;2023-06-24T12:06:55;4.32;;;2.60;;
23608;SDS011;11982;50.810;4.442;2023-06-24T12:09:21;3.55;;;2.60;;
23608;SDS011;11982;50.810;4.442;2023-06-24T12:11:47;9.75;;;2.58;;
23608;SDS011;11982;50.810;4.442;2023-06-24T12:14:13;4.10;;;2.85;;
23608;SDS011;11982;50.810;4.442;2023-06-24T12:16:39;3.90;;;2.75;;
23608;SDS011;11982;50.810;4.442;2023-06-24T12:19:05;3.88;;;2.45;;
23608;SDS011;11982;50.810;4.442;2023-06-24T12:21:32;3.80;;;2.95;;
23608;SDS011;11982;50.810;4.442;2023-06-24T12:27:20;3.75;;;2.72;;
23608;SDS011;11982;50.810;4.442;2023-06-24T12:29:46;3.28;;;2.67;;
23608;SDS011;11982;50.810;4.442;2023-06-24T12:32:12;3.15;;;2.58;;
23608;SDS011;11982;50.810;4.442;2023-06-24T12:34:37;3.05;;;2.40;;
23608;SDS011;11982;50.810;4.442;2023-06-24T12:37:03;5.95;;;2.75;;
23608;SDS011;11982;50.810;4.442;2023-06-24T12:42:50;3.30;;;2.58;;
23608;SDS011;11982;50.810;4.442;2023-06-24T12:45:15;3.58;;;2.50;;
23608;SDS011;11982;50.810;4.442;2023-06-24T12:47:41;5.57;;;2.65;;
23608;SDS011;11982;50.810;4.442;2023-06-24T12:50:07;3.03;;;2.70;;
23608;SDS011;11982;50.810;4.442;2023-06-24T12:52:33;2.80;;;2.40;;
23608;SDS011;11982;50.810;4.442;2023-06-24T12:54:59;4.22;;;2.65;;
23608;SDS011;11982;50.810;4.442;2023-06-24T12:57:25;2.72;;;2.42;;
23608;SDS011;11982;50.810;4.442;2023-06-24T12:59:51;5.60;;;2.60;;
23608;SDS011;11982;50.810;4.442;2023-06-24T13:02:17;3.83;;;2.50;;
23608;SDS011;11982;50.810;4.442;2023-06-24T13:04:42;3.60;;;2.55;;
23608;SDS011;11982;50.810;4.442;2023-06-24T13:07:08;2.78;;;2.33;;
23608;SDS011;11982;50.810;4.442;2023-06-24T13:12:56;4.20;;;2.80;;
23608;SDS011;11982;50.810;4.442;2023-06-24T13:15:22;4.40;;;2.42;;
23608;SDS011;11982;50.810;4.442;2023-06-24T13:17:49;4.07;;;2.45;;
23608;SDS011;11982;50.810;4.442;2023-06-24T13:20:15;2.50;;;2.30;;
23608;SDS011;11982;50.810;4.442;2023-06-24T13:22:41;2.33;;;2.13;;
23608;SDS011;11982;50.810;4.442;2023-06-24T13:25:06;3.03;;;2.30;;
23608;SDS011;11982;50.810;4.442;2023-06-24T13:27:32;4.03;;;2.50;;
23608;SDS011;11982;50.810;4.442;2023-06-24T13:29:58;4.93;;;2.85;;
23608;SDS011;11982;50.810;4.442;2023-06-24T13:32:24;2.72;;;2.20;;
23608;SDS011;11982;50.810;4.442;2023-06-24T13:34:49;5.30;;;2.50;;
23608;SDS011;11982;50.810;4.442;2023-06-24T13:37:15;2.95;;;2.63;;
23608;SDS011;11982;50.810;4.442;2023-06-24T13:43:03;2.60;;;2.40;;
23608;SDS011;11982;50.810;4.442;2023-06-24T13:45:28;2.90;;;2.70;;
23608;SDS011;11982;50.810;4.442;2023-06-24T13:47:54;5.57;;;2.53;;
23608;SDS011;11982;50.810;4.442;2023-06-24T13:50:20;4.22;;;3.08;;
23608;SDS011;11982;50.810;4.442;2023-06-24T13:52:46;4.18;;;2.72;;
23608;SDS011;11982;50.810;4.442;2023-06-24T13:58:47;3.33;;;2.38;;
23608;SDS011;11982;50.810;4.442;2023-06-24T14:01:14;2.80;;;2.60;;
23608;SDS011;11982;50.810;4.442;2023-06-24T14:03:40;5.28;;;2.70;;
23608;SDS011;11982;50.810;4.442;2023-06-24T14:06:06;3.90;;;2.67;;
23608;SDS011;11982;50.810;4.442;2023-06-24T14:08:32;2.80;;;2.40;;
23608;SDS011;11982;50.810;4.442;2023-06-24T14:10:58;4.18;;;2.50;;
23608;SDS011;11982;50.810;4.442;2023-06-24T14:13:25;3.90;;;2.72;;
23608;SDS011;11982;50.810;4.442;2023-06-24T14:15:51;5.18;;;2.75;;
23608;SDS011;11982;50.810;4.442;2023-06-24T14:18:17;4.40;;;2.47;;
23608;SDS011;11982;50.810;4.442;2023-06-24T14:20:43;2.78;;;2.40;;
23608;SDS011;11982;50.810;4.442;2023-06-24T14:23:09;3.22;;;2.90;;
23608;SDS011;11982;50.810;4.442;2023-06-24T14:28:56;4.82;;;2.80;;
23608;SDS011;11982;50.810;4.442;2023-06-24T14:31:22;2.88;;;2.63;;
23608;SDS011;11982;50.810;4.442;2023-06-24T14:33:48;3.58;;;2.53;;
23608;SDS011;11982;50.810;4.442;2023-06-24T14:36:13;3.28;;;2.70;;
23608;SDS011;11982;50.810;4.442;2023-06-24T14:38:39;3.50;;;2.60;;
23608;SDS011;11982;50.810;4.442;2023-06-24T14:41:06;3.17;;;2.40;;
23608;SDS011;11982;50.810;4.442;2023-06-24T14:43:32;3.83;;;2.72;;
23608;SDS011;11982;50.810;4.442;2023-06-24T14:45:58;4.18;;;2.65;;
23608;SDS011;11982;50.810;4.442;2023-06-24T14:48:24;4.55;;;2.67;;
23608;SDS011;11982;50.810;4.442;2023-06-24T14:50:50;2.70;;;2.50;;
23608;SDS011;11982;50.810;4.442;2023-06-24T14:53:15;2.88;;;2.67;;
23608;SDS011;11982;50.810;4.442;2023-06-24T14:59:03;3.50;;;2.50;;
23608;SDS011;11982;50.810;4.442;2023-06-24T15:01:28;4.00;;;3.08;;
23608;SDS011;11982;50.810;4.442;2023-06-24T15:03:54;5.50;;;2.72;;
23608;SDS011;11982;50.810;4.442;2023-06-24T15:06:20;3.00;;;2.58;;
23608;SDS011;11982;50.810;4.442;2023-06-24T15:08:45;5.30;;;2.80;;
23608;SDS011;11982;50.810;4.442;2023-06-24T15:14:33;2.75;;;2.55;;
23608;SDS011;11982;50.810;4.442;2023-06-24T15:16:59;3.78;;;2.97;;
23608;SDS011;11982;50.810;4.442;2023-06-24T15:19:24;3.13;;;2.78;;
23608;SDS011;11982;50.810;4.442;2023-06-24T15:21:50;2.60;;;2.40;;
23608;SDS011;11982;50.810;4.442;2023-06-24T15:24:16;2.53;;;2.33;;
23608;SDS011;11982;50.810;4.442;2023-06-24T15:26:41;3.33;;;2.70;;
23608;SDS011;11982;50.810;4.442;2023-06-24T15:29:07;3.10;;;2.80;;
23608;SDS011;11982;50.810;4.442;2023-06-24T15:31:32;3.30;;;2.90;;
23608;SDS011;11982;50.810;4.442;2023-06-24T15:33:58;4.88;;;2.72;;
23608;SDS011;11982;50.810;4.442;2023-06-24T15:36:24;2.83;;;2.63;;
23608;SDS011;11982;50.810;4.442;2023-06-24T15:38:52;5.68;;;2.53;;
23608;SDS011;11982;50.810;4.442;2023-06-24T15:44:43;3.28;;;2.60;;
23608;SDS011;11982;50.810;4.442;2023-06-24T15:47:08;3.20;;;2.88;;
23608;SDS011;11982;50.810;4.442;2023-06-24T15:49:35;3.25;;;2.83;;
23608;SDS011;11982;50.810;4.442;2023-06-24T15:52:00;4.20;;;2.85;;
23608;SDS011;11982;50.810;4.442;2023-06-24T15:54:26;3.40;;;2.95;;
23608;SDS011;11982;50.810;4.442;2023-06-24T16:00:14;3.65;;;2.50;;
23608;SDS011;11982;50.810;4.442;2023-06-24T16:02:40;5.13;;;3.28;;
23608;SDS011;11982;50.810;4.442;2023-06-24T16:05:06;3.22;;;2.92;;
23608;SDS011;11982;50.810;4.442;2023-06-24T16:07:32;4.90;;;3.03;;
23608;SDS011;11982;50.810;4.442;2023-06-24T16:09:58;3.67;;;3.00;;
23608;SDS011;11982;50.810;4.442;2023-06-24T16:12:24;3.00;;;2.70;;
23608;SDS011;11982;50.810;4.442;2023-06-24T16:14:50;3.50;;;3.15;;
23608;SDS011;11982;50.810;4.442;2023-06-24T16:17:16;3.60;;;3.15;;
23608;SDS011;11982;50.810;4.442;2023-06-24T16:19:42;4.78;;;3.33;;
23608;SDS011;11982;50.810;4.442;2023-06-24T16:22:07;6.07;;;3.10;;
23608;SDS011;11982;50.810;4.442;2023-06-24T16:24:33;4.82;;;3.20;;
23608;SDS011;11982;50.810;4.442;2023-06-24T16:30:20;3.60;;;3.30;;
23608;SDS011;11982;50.810;4.442;2023-06-24T16:32:46;2.97;;;2.70;;
23608;SDS011;11982;50.810;4.442;2023-06-24T16:35:12;7.10;;;3.30;;
23608;SDS011;11982;50.810;4.442;2023-06-24T16:37:38;3.67;;;3.17;;
23608;SDS011;11982;50.810;4.442;2023-06-24T16:46:49;3.85;;;3.10;;
23608;SDS011;11982;50.810;4.442;2023-06-24T16:49:15;5.20;;;3.88;;